Time;durP1;ratioP1;P1;durP2;ratioP2;P2;SDS_P1;SDS_P2;PMS_P1;PMS_P2;Temp;Humidity;BMP_temperature;BMP_pressure;BME280_temperature;BME280_humidity;BME280_pressure;Samples;Min_cycle;Max_cycle;Signal;HPM_P1;HPM_P2
2022/05/07 00:02:27;;;;;;;;;;;14.70;94.70;;;;;;4183931;28;20067;-70
2022/05/07 00:04:51;;;;;;;0.00;0.00;;;14.60;94.70;;;;;;4169848;28;20284;-73
2022/05/07 00:07:17;;;;;;;0.00;0.00;;;14.60;94.80;;;;;;4184217;28;20536;-70
2022/05/07 00:09:39;;;;;;;0.00;0.00;;;14.60;94.80;;;;;;4183455;28;20139;-72
2022/05/07 00:12:01;;;;;;;0.00;0.00;;;14.60;94.80;;;;;;4184274;28;20061;-76
2022/05/07 00:14:24;;;;;;;0.00;0.00;;;14.60;94.80;;;;;;4197133;28;20055;-69
2022/05/07 00:19:34;;;;;;;0.00;0.00;;;14.40;94.80;;;;;;4184212;28;20107;-69
2022/05/07 00:21:58;;;;;;;0.00;0.00;;;14.30;94.80;;;;;;4183352;28;20052;-75
2022/05/07 00:24:28;;;;;;;0.00;0.00;;;14.40;94.70;;;;;;4184052;28;20045;-70
2022/05/07 00:26:59;;;;;;;0.00;0.00;;;14.40;94.70;;;;;;4170477;28;20129;-71
2022/05/07 00:29:21;;;;;;;0.00;0.00;;;14.50;94.70;;;;;;4183227;28;20041;-70
2022/05/07 00:31:48;;;;;;;0.00;0.00;;;14.50;94.60;;;;;;4183130;28;20057;-72
2022/05/07 00:34:11;;;;;;;0.00;0.00;;;14.50;94.70;;;;;;4183830;28;20368;-69
2022/05/07 00:36:38;;;;;;;0.00;0.00;;;14.60;94.80;;;;;;4182409;28;20045;-71
2022/05/07 00:39:06;;;;;;;0.00;0.00;;;14.60;94.80;;;;;;4183021;28;20049;-72
2022/05/07 00:41:33;;;;;;;0.00;0.00;;;14.50;94.80;;;;;;4156538;28;20045;-71
2022/05/07 00:44:02;;;;;;;0.00;0.00;;;14.50;95.00;;;;;;4182855;28;20426;-69
2022/05/07 00:46:25;;;;;;;0.00;0.00;;;14.50;95.00;;;;;;4168814;28;20091;-72
2022/05/07 00:49:01;;;;;;;0.00;0.00;;;14.50;95.00;;;;;;4182977;28;20041;-72
2022/05/07 00:51:38;;;;;;;0.00;0.00;;;14.40;94.90;;;;;;4183049;28;20114;-72
2022/05/07 00:54:10;;;;;;;0.00;0.00;;;14.40;95.00;;;;;;4183620;28;20053;-72
2022/05/07 00:56:45;;;;;;;0.00;0.00;;;14.40;95.00;;;;;;4182911;28;20045;-72
2022/05/07 00:59:29;;;;;;;0.00;0.00;;;14.40;95.00;;;;;;4182720;28;20154;-71
2022/05/07 01:02:08;;;;;;;0.00;0.00;;;14.40;95.00;;;;;;4182824;28;20045;-73
2022/05/07 01:04:33;;;;;;;0.00;0.00;;;14.50;95.00;;;;;;4169055;28;20476;-72
2022/05/07 01:07:10;;;;;;;0.00;0.00;;;14.40;94.90;;;;;;4182821;28;20064;-71
2022/05/07 01:09:38;;;;;;;0.00;0.00;;;14.40;95.00;;;;;;4169672;28;20068;-75
2022/05/07 01:12:09;;;;;;;0.00;0.00;;;14.50;95.00;;;;;;4169876;28;20056;-72
2022/05/07 01:14:32;;;;;;;0.00;0.00;;;14.40;95.00;;;;;;4155194;28;20053;-72
2022/05/07 01:16:56;;;;;;;0.00;0.00;;;14.50;95.10;;;;;;4182646;28;20049;-72
2022/05/07 01:19:32;;;;;;;0.00;0.00;;;14.50;95.00;;;;;;4182565;28;20110;-72
2022/05/07 01:22:10;;;;;;;0.00;0.00;;;14.50;95.00;;;;;;4182567;28;20057;-70
2022/05/07 01:24:35;;;;;;;0.00;0.00;;;14.40;95.00;;;;;;4182394;28;20049;-74
2022/05/07 01:27:09;;;;;;;0.00;0.00;;;14.50;95.10;;;;;;4170060;28;20061;-72
2022/05/07 01:29:40;;;;;;;0.00;0.00;;;14.50;95.10;;;;;;4182198;28;20056;-70
2022/05/07 01:32:17;;;;;;;0.00;0.00;;;14.40;95.10;;;;;;4182309;28;20111;-70
2022/05/07 01:34:40;;;;;;;0.00;0.00;;;14.40;95.20;;;;;;4195545;28;20110;-70
2022/05/07 01:37:04;;;;;;;0.00;0.00;;;14.40;95.10;;;;;;4155198;28;20442;-69
2022/05/07 01:39:28;;;;;;;0.00;0.00;;;14.50;95.20;;;;;;4168271;28;20046;-73
2022/05/07 01:41:52;;;;;;;0.00;0.00;;;14.50;95.10;;;;;;4168321;28;20088;-70
2022/05/07 01:44:20;;;;;;;0.00;0.00;;;14.50;95.10;;;;;;4155345;28;20137;-69
2022/05/07 01:49:26;;;;;;;0.00;0.00;;;14.60;95.10;;;;;;4167973;28;20053;-69
2022/05/07 01:51:52;;;;;;;0.00;0.00;;;14.60;95.10;;;;;;4182171;28;20056;-70
2022/05/07 01:54:16;;;;;;;0.00;0.00;;;14.50;95.20;;;;;;4181772;28;20041;-70
2022/05/07 01:56:44;;;;;;;0.00;0.00;;;14.50;95.30;;;;;;4182032;28;20342;-74
2022/05/07 01:59:06;;;;;;;0.00;0.00;;;14.50;95.40;;;;;;4168239;28;20045;-71
2022/05/07 02:01:32;;;;;;;0.00;0.00;;;14.50;95.40;;;;;;4181923;28;20128;-72
2022/05/07 02:03:59;;;;;;;0.00;0.00;;;14.50;95.40;;;;;;4181987;28;20547;-69
2022/05/07 02:06:24;;;;;;;0.00;0.00;;;14.50;95.50;;;;;;4167745;28;20060;-71
2022/05/07 02:08:48;;;;;;;0.00;0.00;;;14.40;95.60;;;;;;4151768;28;20046;-72
2022/05/07 02:11:15;;;;;;;0.00;0.00;;;14.40;95.60;;;;;;4165114;28;20041;-71
2022/05/07 02:13:37;;;;;;;0.00;0.00;;;14.40;95.60;;;;;;4165162;28;20053;-73
2022/05/07 02:16:02;;;;;;;0.00;0.00;;;14.50;95.60;;;;;;4151428;28;20140;-75
2022/05/07 02:18:25;;;;;;;0.00;0.00;;;14.50;95.70;;;;;;4165095;28;20085;-72
2022/05/07 02:20:47;;;;;;;0.00;0.00;;;14.50;95.70;;;;;;4165314;28;20530;-72
2022/05/07 02:23:09;;;;;;;0.00;0.00;;;14.50;95.70;;;;;;4161986;28;20053;-71
2022/05/07 02:25:33;;;;;;;0.00;0.00;;;14.50;95.60;;;;;;4148910;28;20054;-73
2022/05/07 02:27:59;;;;;;;0.00;0.00;;;14.50;95.50;;;;;;4143873;28;20093;-72
2022/05/07 02:30:25;;;;;;;0.00;0.00;;;14.50;95.50;;;;;;4151301;28;20464;-72
2022/05/07 02:32:49;;;;;;;0.00;0.00;;;14.50;95.50;;;;;;4151292;28;20380;-70
2022/05/07 02:35:15;;;;;;;0.00;0.00;;;14.50;95.70;;;;;;4124739;28;20381;-72
2022/05/07 02:37:43;;;;;;;0.00;0.00;;;14.50;95.60;;;;;;4137701;28;20050;-71
2022/05/07 02:40:13;;;;;;;0.00;0.00;;;14.40;95.60;;;;;;4151121;28;20398;-71
2022/05/07 02:42:39;;;;;;;0.00;0.00;;;14.40;95.70;;;;;;4179025;28;20447;-72
2022/05/07 02:45:11;;;;;;;0.00;0.00;;;14.40;95.60;;;;;;4164869;28;20376;-70
2022/05/07 02:47:36;;;;;;;0.00;0.00;;;14.40;95.60;;;;;;4150924;28;20141;-73
2022/05/07 02:50:05;;;;;;;0.00;0.00;;;14.40;95.60;;;;;;4178729;28;20376;-73
2022/05/07 02:52:27;;;;;;;0.00;0.00;;;14.40;95.60;;;;;;4150918;28;20085;-72
2022/05/07 02:54:51;;;;;;;0.00;0.00;;;14.40;95.60;;;;;;4150770;28;20042;-70
2022/05/07 02:57:18;;;;;;;0.00;0.00;;;14.40;95.50;;;;;;4178684;28;20049;-73
2022/05/07 02:59:45;;;;;;;0.00;0.00;;;14.40;95.50;;;;;;4150632;28;20416;-71
2022/05/07 03:02:10;;;;;;;0.00;0.00;;;14.40;95.50;;;;;;4164523;28;20049;-69
2022/05/07 03:04:33;;;;;;;0.00;0.00;;;14.40;95.50;;;;;;4150997;28;20101;-71
2022/05/07 03:06:55;;;;;;;0.00;0.00;;;14.50;95.50;;;;;;4151004;28;20045;-71
2022/05/07 03:09:18;;;;;;;0.00;0.00;;;14.50;95.50;;;;;;4137292;28;20137;-70
2022/05/07 03:11:40;;;;;;;0.00;0.00;;;14.40;95.40;;;;;;4150877;28;20041;-70
2022/05/07 03:14:08;;;;;;;0.00;0.00;;;14.30;95.60;;;;;;4137924;28;20133;-70
2022/05/07 03:16:38;;;;;;;0.00;0.00;;;14.30;95.60;;;;;;4164465;28;20136;-71
2022/05/07 03:19:03;;;;;;;0.00;0.00;;;14.30;95.70;;;;;;4150785;28;20078;-71
2022/05/07 03:21:27;;;;;;;0.00;0.00;;;14.30;95.70;;;;;;4151411;28;20058;-72
2022/05/07 03:23:49;;;;;;;0.00;0.00;;;14.30;95.70;;;;;;4164917;28;20045;-71
2022/05/07 03:26:16;;;;;;;0.00;0.00;;;14.30;95.60;;;;;;4151056;28;20133;-73
2022/05/07 03:28:39;;;;;;;0.00;0.00;;;14.30;95.50;;;;;;4164601;28;20060;-71
2022/05/07 03:31:06;;;;;;;0.00;0.00;;;14.20;95.50;;;;;;4164790;28;20055;-71
2022/05/07 03:33:31;;;;;;;0.00;0.00;;;14.10;95.40;;;;;;4150754;28;20042;-71
2022/05/07 03:35:54;;;;;;;0.00;0.00;;;14.00;95.40;;;;;;4150829;28;20095;-75
2022/05/07 03:38:20;;;;;;;0.00;0.00;;;14.10;95.30;;;;;;4164822;28;20049;-72
2022/05/07 03:41:07;;;;;;;0.00;0.00;;;14.10;95.30;;;;;;4154155;28;20053;-74
2022/05/07 03:43:36;;;;;;;0.00;0.00;;;14.00;95.30;;;;;;4150777;28;20061;-71
2022/05/07 03:45:59;;;;;;;0.00;0.00;;;14.00;95.40;;;;;;4137289;28;20050;-72
2022/05/07 03:48:25;;;;;;;0.00;0.00;;;14.00;95.30;;;;;;4150506;28;20112;-72
2022/05/07 03:50:53;;;;;;;0.00;0.00;;;14.10;95.20;;;;;;4150911;28;20103;-70
2022/05/07 03:53:33;;;;;;;0.00;0.00;;;14.00;95.20;;;;;;4164189;28;20064;-70
2022/05/07 03:56:03;;;;;;;0.00;0.00;;;14.00;95.30;;;;;;4150447;28;20421;-70
2022/05/07 03:58:31;;;;;;;0.00;0.00;;;14.00;95.40;;;;;;4150584;28;20085;-69
2022/05/07 04:00:55;;;;;;;0.00;0.00;;;13.90;95.40;;;;;;4150393;28;20050;-73
2022/05/07 04:03:17;;;;;;;0.00;0.00;;;13.80;95.50;;;;;;4150676;28;20682;-70
2022/05/07 04:05:49;;;;;;;0.00;0.00;;;13.80;95.50;;;;;;4150566;28;20042;-70
2022/05/07 04:08:13;;;;;;;0.00;0.00;;;13.80;95.50;;;;;;4150714;28;20057;-70
2022/05/07 04:10:39;;;;;;;0.00;0.00;;;13.80;95.50;;;;;;4150401;28;20107;-73
2022/05/07 04:13:04;;;;;;;0.00;0.00;;;13.90;95.50;;;;;;4153552;28;20057;-72
2022/05/07 04:15:29;;;;;;;0.00;0.00;;;13.90;95.50;;;;;;4139549;28;20054;-72
2022/05/07 04:17:59;;;;;;;0.00;0.00;;;13.90;95.50;;;;;;4153314;28;20050;-71
2022/05/07 04:20:25;;;;;;;0.00;0.00;;;14.00;95.50;;;;;;4153258;28;20041;-73
2022/05/07 04:22:55;;;;;;;0.00;0.00;;;14.00;95.50;;;;;;4140599;28;20070;-73
2022/05/07 04:25:17;;;;;;;0.00;0.00;;;14.00;95.50;;;;;;4153411;28;20049;-72
2022/05/07 04:27:46;;;;;;;0.00;0.00;;;14.10;95.50;;;;;;4167010;28;20148;-71
2022/05/07 04:30:09;;;;;;;0.00;0.00;;;14.10;95.60;;;;;;4153194;28;20054;-71
2022/05/07 04:32:34;;;;;;;0.00;0.00;;;14.10;95.60;;;;;;4167080;28;20499;-73
2022/05/07 04:34:59;;;;;;;0.00;0.00;;;14.10;95.70;;;;;;4166872;28;20140;-73
2022/05/07 04:37:26;;;;;;;0.00;0.00;;;14.20;95.70;;;;;;4153427;28;20116;-72
2022/05/07 04:39:53;;;;;;;0.00;0.00;;;14.20;95.70;;;;;;4153042;28;20050;-73
2022/05/07 04:42:17;;;;;;;0.00;0.00;;;14.10;95.70;;;;;;4152473;28;20097;-71
2022/05/07 04:44:58;;;;;;;0.00;0.00;;;14.10;95.60;;;;;;4152874;28;20046;-74
2022/05/07 04:47:40;;;;;;;0.00;0.00;;;14.10;95.60;;;;;;4166090;28;20057;-72
2022/05/07 04:50:09;;;;;;;0.00;0.00;;;14.10;95.70;;;;;;4152536;28;20137;-71
2022/05/07 04:52:40;;;;;;;0.00;0.00;;;14.10;95.70;;;;;;4128066;28;20057;-69
2022/05/07 04:55:08;;;;;;;0.00;0.00;;;14.10;95.70;;;;;;4152790;28;20493;-70
2022/05/07 04:57:33;;;;;;;0.00;0.00;;;14.00;95.70;;;;;;4138985;28;20128;-73
2022/05/07 05:00:01;;;;;;;0.00;0.00;;;14.00;95.70;;;;;;4152645;28;20484;-72
2022/05/07 05:02:41;;;;;;;0.00;0.00;;;14.00;95.90;;;;;;4152285;28;20092;-73
2022/05/07 05:05:10;;;;;;;0.00;0.00;;;14.00;95.80;;;;;;4152551;28;20421;-69
2022/05/07 05:07:35;;;;;;;0.00;0.00;;;14.10;95.80;;;;;;4138524;28;20062;-72
2022/05/07 05:10:00;;;;;;;0.00;0.00;;;14.10;96.00;;;;;;4166451;28;20385;-73
2022/05/07 05:12:36;;;;;;;0.00;0.00;;;14.20;95.80;;;;;;4152209;28;20061;-69
2022/05/07 05:15:03;;;;;;;0.00;0.00;;;14.20;95.70;;;;;;4152233;28;20045;-68
2022/05/07 05:17:41;;;;;;;0.00;0.00;;;14.20;95.50;;;;;;4152152;28;20061;-71
2022/05/07 05:20:07;;;;;;;0.00;0.00;;;14.20;95.70;;;;;;4152360;28;20088;-71
2022/05/07 05:22:37;;;;;;;0.00;0.00;;;14.20;95.80;;;;;;4152022;28;20115;-71
2022/05/07 05:25:06;;;;;;;0.00;0.00;;;14.20;95.80;;;;;;4152332;28;20124;-70
2022/05/07 05:27:35;;;;;;;0.00;0.00;;;14.20;95.80;;;;;;4165802;28;20057;-69
2022/05/07 05:30:00;;;;;;;0.00;0.00;;;14.20;95.70;;;;;;4166155;28;20057;-70
2022/05/07 05:32:24;;;;;;;0.00;0.00;;;14.30;95.70;;;;;;4151688;28;20046;-70
2022/05/07 05:34:54;;;;;;;0.00;0.00;;;14.30;95.60;;;;;;4165777;28;20049;-69
2022/05/07 05:37:30;;;;;;;0.00;0.00;;;14.30;95.50;;;;;;4152087;28;20046;-68
2022/05/07 05:39:55;;;;;;;0.00;0.00;;;14.20;95.80;;;;;;4152550;28;20081;-67
2022/05/07 05:42:21;;;;;;;0.00;0.00;;;14.30;95.70;;;;;;4151693;28;20037;-68
2022/05/07 05:44:45;;;;;;;0.00;0.00;;;14.30;95.80;;;;;;4165376;28;20476;-68
2022/05/07 05:47:18;;;;;;;0.00;0.00;;;14.30;95.60;;;;;;4152542;28;20575;-68
2022/05/07 05:49:44;;;;;;;0.00;0.00;;;14.30;95.60;;;;;;4138739;28;20058;-68
2022/05/07 05:52:07;;;;;;;0.00;0.00;;;14.30;95.80;;;;;;4151667;28;20393;-68
2022/05/07 05:54:34;;;;;;;0.00;0.00;;;14.40;95.80;;;;;;4151811;28;20064;-68
2022/05/07 05:56:57;;;;;;;0.00;0.00;;;14.50;95.70;;;;;;4165279;28;20139;-68
2022/05/07 05:59:19;;;;;;;0.00;0.00;;;14.50;95.60;;;;;;4151577;28;20064;-68
2022/05/07 06:01:51;;;;;;;0.00;0.00;;;14.50;95.70;;;;;;4165462;28;20144;-68
2022/05/07 06:04:37;;;;;;;0.00;0.00;;;14.40;95.50;;;;;;4165362;28;20045;-68
2022/05/07 06:07:21;;;;;;;0.00;0.00;;;14.30;95.80;;;;;;4151507;28;20049;-69
2022/05/07 06:09:48;;;;;;;0.00;0.00;;;14.30;96.00;;;;;;4151352;28;20100;-70
2022/05/07 06:12:15;;;;;;;0.00;0.00;;;14.30;95.90;;;;;;4138874;28;20390;-69
2022/05/07 06:14:42;;;;;;;0.00;0.00;;;14.40;95.80;;;;;;4164876;28;20060;-67
2022/05/07 06:17:04;;;;;;;0.00;0.00;;;14.40;95.90;;;;;;4151477;28;20074;-69
2022/05/07 06:19:28;;;;;;;0.00;0.00;;;14.30;96.00;;;;;;4151810;28;20057;-69
2022/05/07 06:21:52;;;;;;;0.00;0.00;;;14.50;96.00;;;;;;4151313;28;20059;-69
2022/05/07 06:29:47;;;;;;;0.00;0.00;;;14.70;95.30;;;;;;4151301;28;20100;-67
2022/05/07 06:32:11;;;;;;;0.00;0.00;;;14.70;95.00;;;;;;4151296;28;20065;-69
2022/05/07 06:34:38;;;;;;;0.00;0.00;;;14.80;95.10;;;;;;4150604;28;20062;-69
2022/05/07 06:37:01;;;;;;;0.00;0.00;;;14.90;95.20;;;;;;4164711;28;20045;-69
2022/05/07 06:39:28;;;;;;;0.00;0.00;;;14.90;95.10;;;;;;4151384;28;20042;-69
2022/05/07 06:41:55;;;;;;;0.00;0.00;;;15.00;94.40;;;;;;4151658;28;20037;-69
2022/05/07 06:44:20;;;;;;;0.00;0.00;;;15.00;94.40;;;;;;4165212;28;20376;-69
2022/05/07 06:46:45;;;;;;;0.00;0.00;;;15.10;94.60;;;;;;4163513;28;20061;-69
2022/05/07 06:49:11;;;;;;;0.00;0.00;;;15.10;94.70;;;;;;4150134;28;20092;-69
2022/05/07 06:51:46;;;;;;;0.00;0.00;;;15.20;94.50;;;;;;4138780;28;20054;-69
2022/05/07 06:54:11;;;;;;;0.00;0.00;;;15.20;94.60;;;;;;4164428;28;20084;-68
2022/05/07 06:56:33;;;;;;;0.00;0.00;;;15.20;94.50;;;;;;4164567;28;20049;-68
2022/05/07 06:58:58;;;;;;;0.00;0.00;;;15.20;94.40;;;;;;4164951;28;20084;-69
2022/05/07 07:01:19;;;;;;;0.00;0.00;;;15.00;94.20;;;;;;4164312;28;20565;-69
2022/05/07 07:03:44;;;;;;;0.00;0.00;;;15.10;94.30;;;;;;4148193;28;20085;-70
2022/05/07 07:06:08;;;;;;;0.00;0.00;;;15.00;94.10;;;;;;4134663;28;20050;-68
2022/05/07 07:08:33;;;;;;;0.00;0.00;;;15.00;94.10;;;;;;4134502;28;20108;-68
2022/05/07 07:10:58;;;;;;;0.00;0.00;;;15.00;94.10;;;;;;4148262;28;20382;-68
2022/05/07 07:13:27;;;;;;;0.00;0.00;;;15.00;94.10;;;;;;4134711;28;20053;-69
2022/05/07 07:16:01;;;;;;;0.00;0.00;;;15.10;94.10;;;;;;4147837;28;20456;-69
2022/05/07 07:18:23;;;;;;;0.00;0.00;;;15.20;93.70;;;;;;4148077;28;20370;-68
2022/05/07 07:20:50;;;;;;;0.00;0.00;;;14.90;93.70;;;;;;4160752;28;20049;-70
2022/05/07 07:23:12;;;;;;;0.00;0.00;;;15.00;94.00;;;;;;4164199;28;20099;-68
2022/05/07 07:25:42;;;;;;;0.00;0.00;;;15.10;93.90;;;;;;4137001;28;20101;-68
2022/05/07 07:28:05;;;;;;;0.00;0.00;;;15.10;93.80;;;;;;4150389;28;20453;-68
2022/05/07 07:30:29;;;;;;;0.00;0.00;;;15.00;94.20;;;;;;4164213;28;20140;-68
2022/05/07 07:32:53;;;;;;;0.00;0.00;;;15.20;94.30;;;;;;4164178;28;20050;-68
2022/05/07 07:35:17;;;;;;;0.00;0.00;;;15.40;94.10;;;;;;4150582;28;20042;-69
2022/05/07 07:37:45;;;;;;;0.00;0.00;;;15.50;93.70;;;;;;4164335;28;20049;-69
2022/05/07 07:40:08;;;;;;;0.00;0.00;;;15.70;93.70;;;;;;4164123;28;20095;-69
2022/05/07 07:42:30;;;;;;;0.00;0.00;;;15.80;93.60;;;;;;4164303;28;20080;-69
2022/05/07 07:47:56;;;;;;;0.00;0.00;;;15.90;93.40;;;;;;4164008;28;20346;-68
2022/05/07 07:50:18;;;;;;;0.00;0.00;;;15.90;92.90;;;;;;4164373;28;20080;-68
2022/05/07 07:52:42;;;;;;;0.00;0.00;;;15.80;92.90;;;;;;4151101;28;20060;-68
2022/05/07 07:55:04;;;;;;;0.00;0.00;;;15.60;93.40;;;;;;4150644;28;20045;-69
2022/05/07 07:57:26;;;;;;;0.00;0.00;;;15.50;93.70;;;;;;4150667;28;20382;-67
2022/05/07 07:59:54;;;;;;;0.00;0.00;;;15.70;93.40;;;;;;4150352;28;20042;-67
2022/05/07 08:02:24;;;;;;;0.00;0.00;;;15.80;92.70;;;;;;4150956;28;20042;-69
2022/05/07 08:04:53;;;;;;;0.00;0.00;;;15.70;92.90;;;;;;4136862;28;20078;-68
2022/05/07 08:12:45;;;;;;;0.00;0.00;;;16.20;93.10;;;;;;4136228;28;20104;-69
2022/05/07 08:15:07;;;;;;;0.00;0.00;;;16.10;92.50;;;;;;4123438;28;20105;-68
2022/05/07 08:17:33;;;;;;;0.00;0.00;;;16.20;92.60;;;;;;4136740;28;20065;-68
2022/05/07 08:19:55;;;;;;;0.00;0.00;;;16.30;92.60;;;;;;4156306;28;20044;-69
2022/05/07 08:22:20;;;;;;;0.00;0.00;;;16.30;92.20;;;;;;4166539;28;20072;-68
2022/05/07 08:24:45;;;;;;;0.00;0.00;;;16.30;92.20;;;;;;4166906;28;20053;-68
2022/05/07 08:27:08;;;;;;;0.00;0.00;;;16.20;92.20;;;;;;4153010;28;20057;-68
2022/05/07 08:29:32;;;;;;;0.00;0.00;;;16.20;92.20;;;;;;4180397;28;20055;-68
2022/05/07 08:31:57;;;;;;;0.00;0.00;;;16.00;92.30;;;;;;4180786;28;20064;-68
2022/05/07 08:34:21;;;;;;;0.00;0.00;;;15.60;92.80;;;;;;4180686;28;20040;-69
2022/05/07 08:36:43;;;;;;;0.00;0.00;;;15.60;93.10;;;;;;4166470;28;20037;-69
2022/05/07 08:39:08;;;;;;;0.00;0.00;;;15.50;92.70;;;;;;4180710;28;20052;-68
2022/05/07 08:41:30;;;;;;;0.00;0.00;;;15.60;92.50;;;;;;4166884;28;20041;-69
2022/05/07 08:43:55;;;;;;;0.00;0.00;;;15.70;92.40;;;;;;4180664;28;20123;-69
2022/05/07 08:46:22;;;;;;;0.00;0.00;;;15.90;92.30;;;;;;4152862;28;20440;-68
2022/05/07 08:48:47;;;;;;;0.00;0.00;;;16.10;92.20;;;;;;4166384;28;20443;-69
2022/05/07 08:51:16;;;;;;;0.00;0.00;;;16.00;92.10;;;;;;4166333;28;20073;-67
2022/05/07 08:53:43;;;;;;;0.00;0.00;;;16.00;92.10;;;;;;4180512;28;20858;-68
2022/05/07 08:56:10;;;;;;;0.00;0.00;;;15.80;92.10;;;;;;4166114;28;20071;-68
2022/05/07 08:58:34;;;;;;;0.00;0.00;;;15.70;92.10;;;;;;4165910;28;20038;-69
2022/05/07 09:01:01;;;;;;;0.00;0.00;;;15.80;92.40;;;;;;4180178;28;20048;-69
2022/05/07 09:03:41;;;;;;;0.00;0.00;;;15.90;92.30;;;;;;4180279;28;20463;-68
2022/05/07 09:06:18;;;;;;;0.00;0.00;;;15.90;91.90;;;;;;4166382;28;20476;-68
2022/05/07 09:08:45;;;;;;;0.00;0.00;;;15.90;92.00;;;;;;4166497;28;20480;-68
2022/05/07 09:11:07;;;;;;;0.00;0.00;;;15.90;92.00;;;;;;4180137;28;20056;-68
2022/05/07 09:13:36;;;;;;;0.00;0.00;;;15.70;92.00;;;;;;4165898;28;20115;-69
2022/05/07 09:15:58;;;;;;;0.00;0.00;;;15.70;92.20;;;;;;4166384;28;20392;-68
2022/05/07 09:18:26;;;;;;;0.00;0.00;;;15.70;92.20;;;;;;4180080;28;20045;-69
2022/05/07 09:21:19;;;;;;;0.00;0.00;;;15.70;92.20;;;;;;4152420;28;20080;-69
2022/05/07 09:23:48;;;;;;;0.00;0.00;;;15.60;92.30;;;;;;4152416;28;20456;-69
2022/05/07 09:26:23;;;;;;;0.00;0.00;;;15.80;92.10;;;;;;4180017;28;20048;-67
2022/05/07 09:28:50;;;;;;;0.00;0.00;;;15.70;92.10;;;;;;4179798;28;20129;-68
2022/05/07 09:31:28;;;;;;;0.00;0.00;;;15.60;92.30;;;;;;4165793;28;20072;-67
2022/05/07 09:33:55;;;;;;;0.00;0.00;;;15.60;92.40;;;;;;4165847;28;20144;-68
2022/05/07 09:36:22;;;;;;;0.00;0.00;;;15.50;92.40;;;;;;4165729;28;20133;-68
2022/05/07 09:38:44;;;;;;;0.00;0.00;;;15.50;92.50;;;;;;4165707;28;20050;-69
2022/05/07 09:41:09;;;;;;;0.00;0.00;;;15.50;92.70;;;;;;4179619;28;20033;-68
2022/05/07 09:43:34;;;;;;;0.00;0.00;;;15.40;92.90;;;;;;4151742;28;20049;-68
2022/05/07 09:45:58;;;;;;;0.00;0.00;;;15.40;93.10;;;;;;4179753;28;20136;-68
2022/05/07 09:48:23;;;;;;;0.00;0.00;;;15.30;93.30;;;;;;4152024;28;20053;-68
2022/05/07 09:50:48;;;;;;;0.00;0.00;;;15.30;93.50;;;;;;4165717;28;20099;-68
2022/05/07 09:58:42;;;;;;;0.00;0.00;;;15.40;93.60;;;;;;4179221;28;20041;-68
2022/05/07 10:01:24;;;;;;;0.00;0.00;;;15.30;93.80;;;;;;4165674;28;20056;-67
2022/05/07 10:04:06;;;;;;;0.00;0.00;;;15.40;93.80;;;;;;4165352;28;20064;-68
2022/05/07 10:06:46;;;;;;;0.00;0.00;;;15.40;94.30;;;;;;4165732;28;20057;-68
2022/05/07 10:09:27;;;;;;;0.00;0.00;;;15.50;94.30;;;;;;4164674;28;20046;-68
2022/05/07 10:11:57;;;;;;;0.00;0.00;;;15.70;94.40;;;;;;4165301;28;20052;-68
2022/05/07 10:14:26;;;;;;;0.00;0.00;;;15.80;94.50;;;;;;4179770;28;20053;-68
2022/05/07 10:16:57;;;;;;;0.00;0.00;;;16.00;94.30;;;;;;4151725;28;20100;-68
2022/05/07 10:19:34;;;;;;;0.00;0.00;;;16.10;94.30;;;;;;4151435;28;20058;-68
2022/05/07 10:21:58;;;;;;;0.00;0.00;;;16.20;94.20;;;;;;4165299;28;20068;-67
2022/05/07 10:24:20;;;;;;;0.00;0.00;;;16.20;93.80;;;;;;4165243;28;20087;-68
2022/05/07 10:26:45;;;;;;;0.00;0.00;;;16.00;93.60;;;;;;4151565;28;20045;-68
2022/05/07 10:29:26;;;;;;;0.00;0.00;;;16.10;93.90;;;;;;4165243;28;20052;-68
2022/05/07 10:32:03;;;;;;;0.00;0.00;;;16.20;93.60;;;;;;4178906;28;20478;-67
2022/05/07 10:34:30;;;;;;;0.00;0.00;;;16.30;93.70;;;;;;4151381;28;20412;-68
2022/05/07 10:37:08;;;;;;;0.00;0.00;;;16.30;93.90;;;;;;4164660;28;20037;-69
2022/05/07 10:39:36;;;;;;;0.00;0.00;;;16.40;93.90;;;;;;4165240;28;20080;-68
2022/05/07 10:42:02;;;;;;;0.00;0.00;;;16.50;93.60;;;;;;4178617;28;20245;-68
2022/05/07 10:44:34;;;;;;;0.00;0.00;;;16.60;93.50;;;;;;4164940;28;20045;-68
2022/05/07 10:47:18;;;;;;;0.00;0.00;;;16.50;92.70;;;;;;4124063;28;20066;-69
2022/05/07 10:49:50;;;;;;;;;;;16.60;93.10;;;;;;4137892;28;20123;-68
2022/05/07 10:52:15;;;;;;;0.00;0.00;;;16.70;93.20;;;;;;4151010;28;19976;-69
2022/05/07 10:54:39;;;;;;;0.00;0.00;;;17.00;93.00;;;;;;4178899;28;20134;-69
2022/05/07 10:57:06;;;;;;;0.00;0.00;;;17.30;92.90;;;;;;4178665;28;20510;-69
2022/05/07 10:59:30;;;;;;;0.00;0.00;;;17.40;92.70;;;;;;4137254;28;20051;-69
2022/05/07 11:02:04;;;;;;;0.00;0.00;;;17.50;92.30;;;;;;4178494;28;20045;-69
2022/05/07 11:04:40;;;;;;;0.00;0.00;;;17.70;92.10;;;;;;4165040;28;20084;-68
2022/05/07 11:07:07;;;;;;;0.00;0.00;;;17.60;92.00;;;;;;4164709;28;20534;-68
2022/05/07 11:09:35;;;;;;;0.00;0.00;;;17.70;91.80;;;;;;4164826;28;20073;-69
2022/05/07 11:12:00;;;;;;;0.00;0.00;;;17.80;91.60;;;;;;4150783;28;20072;-69
2022/05/07 11:14:30;;;;;;;0.00;0.00;;;17.90;91.40;;;;;;4164769;28;20443;-68
2022/05/07 11:16:59;;;;;;;;;;;18.10;91.50;;;;;;4178627;28;20060;-68
2022/05/07 11:19:28;;;;;;;0.00;0.00;;;18.30;91.30;;;;;;4165001;28;19921;-69
2022/05/07 11:21:57;;;;;;;0.00;0.00;;;18.40;91.10;;;;;;4167835;28;20083;-68
2022/05/07 11:24:27;;;;;;;0.00;0.00;;;18.60;90.50;;;;;;4154757;28;20061;-68
2022/05/07 11:26:57;;;;;;;0.00;0.00;;;18.70;90.30;;;;;;4167594;28;20054;-68
2022/05/07 11:29:19;;;;;;;0.00;0.00;;;18.70;90.10;;;;;;4154207;28;20848;-68
2022/05/07 11:32:06;;;;;;;0.00;0.00;;;18.80;88.70;;;;;;4168435;28;20045;-69
2022/05/07 11:34:35;;;;;;;0.00;0.00;;;18.80;88.50;;;;;;4154058;28;20104;-68
2022/05/07 11:37:12;;;;;;;0.00;0.00;;;18.90;87.70;;;;;;4154071;28;20049;-69
2022/05/07 11:39:45;;;;;;;0.00;0.00;;;19.00;87.70;;;;;;4167690;28;20353;-69
2022/05/07 11:42:07;;;;;;;0.00;0.00;;;18.90;86.10;;;;;;4181421;28;20110;-69
2022/05/07 11:47:25;;;;;;;0.00;0.00;;;18.20;87.50;;;;;;4153686;28;20085;-68
2022/05/07 11:50:06;;;;;;;0.00;0.00;;;18.20;87.40;;;;;;4167616;28;20065;-69
2022/05/07 11:52:28;;;;;;;0.00;0.00;;;18.40;86.80;;;;;;4181205;28;20144;-69
2022/05/07 11:54:54;;;;;;;0.00;0.00;;;18.30;86.20;;;;;;4153627;28;20077;-68
2022/05/07 11:57:35;;;;;;;0.00;0.00;;;18.30;86.80;;;;;;4153584;28;20101;-68
2022/05/07 12:00:11;;;;;;;0.00;0.00;;;18.40;87.00;;;;;;4153435;28;20512;-68
2022/05/07 12:02:39;;;;;;;0.00;0.00;;;18.50;86.60;;;;;;4181156;28;20049;-68
2022/05/07 12:05:01;;;;;;;0.00;0.00;;;18.60;86.10;;;;;;4167239;28;20387;-69
2022/05/07 12:07:25;;;;;;;0.00;0.00;;;18.80;86.10;;;;;;4153613;28;20085;-68
2022/05/07 12:09:51;;;;;;;0.00;0.00;;;18.80;85.60;;;;;;4167510;28;20095;-68
2022/05/07 12:12:15;;;;;;;0.00;0.00;;;18.80;85.60;;;;;;4180945;28;20119;-69
2022/05/07 12:14:40;;;;;;;0.00;0.00;;;18.90;85.00;;;;;;4153567;28;20560;-69
2022/05/07 12:19:47;;;;;;;0.00;0.00;;;19.00;83.20;;;;;;4153377;28;20141;-68
2022/05/07 12:30:18;;;;;;;0.00;0.00;;;18.50;82.60;;;;;;4153068;28;20057;-68
2022/05/07 12:32:54;;;;;;;0.00;0.00;;;18.70;82.90;;;;;;4180035;28;20357;-68
2022/05/07 12:35:16;;;;;;;0.00;0.00;;;18.80;81.70;;;;;;4180741;28;20048;-68
2022/05/07 12:37:39;;;;;;;0.00;0.00;;;18.70;81.30;;;;;;4180716;28;20471;-68
2022/05/07 12:40:03;;;;;;;0.00;0.00;;;18.80;80.60;;;;;;4180486;28;20403;-68
2022/05/07 12:42:29;;;;;;;0.00;0.00;;;18.80;81.50;;;;;;4166927;28;20530;-68
2022/05/07 12:44:54;;;;;;;0.00;0.00;;;18.80;82.00;;;;;;4180855;28;20037;-68
2022/05/07 12:47:20;;;;;;;0.00;0.00;;;18.70;81.20;;;;;;4152614;28;20085;-68
2022/05/07 12:49:44;;;;;;;0.00;0.00;;;18.80;81.00;;;;;;4180260;28;20045;-68
2022/05/07 12:52:09;;;;;;;0.00;0.00;;;18.80;80.90;;;;;;4166326;28;20041;-68
2022/05/07 12:54:32;;;;;;;0.00;0.00;;;18.80;81.50;;;;;;4180328;28;20103;-68
2022/05/07 12:56:59;;;;;;;0.00;0.00;;;18.80;80.90;;;;;;4153015;28;20045;-68
2022/05/07 12:59:24;;;;;;;0.00;0.00;;;18.70;81.00;;;;;;4152595;28;20049;-68
2022/05/07 13:01:46;;;;;;;0.00;0.00;;;18.50;79.80;;;;;;4153022;28;20108;-68
2022/05/07 13:04:11;;;;;;;0.00;0.00;;;18.30;79.60;;;;;;4180274;28;20478;-68
2022/05/07 13:06:35;;;;;;;0.00;0.00;;;18.40;80.40;;;;;;4152391;28;20053;-68
2022/05/07 13:09:02;;;;;;;0.00;0.00;;;18.40;79.70;;;;;;4152667;28;20038;-68
2022/05/07 13:11:27;;;;;;;0.00;0.00;;;18.40;79.50;;;;;;4166206;28;20048;-68
2022/05/07 13:13:51;;;;;;;0.00;0.00;;;18.50;79.60;;;;;;4152530;28;20069;-68
2022/05/07 13:16:16;;;;;;;0.00;0.00;;;18.60;79.90;;;;;;4166221;28;20128;-68
2022/05/07 13:18:38;;;;;;;0.00;0.00;;;18.70;78.80;;;;;;4166074;28;20041;-69
2022/05/07 13:21:05;;;;;;;0.00;0.00;;;18.70;78.70;;;;;;4166098;28;20072;-68
2022/05/07 13:23:27;;;;;;;0.00;0.00;;;18.80;78.50;;;;;;4179900;28;20083;-68
2022/05/07 13:25:51;;;;;;;0.00;0.00;;;18.80;79.00;;;;;;4179740;28;20041;-68
2022/05/07 13:28:16;;;;;;;0.00;0.00;;;18.80;78.40;;;;;;4179546;28;20045;-68